sensor_id;sensor_type;location;lat;lon;timestamp;temperature;humidity
12049;DHT22;6085;49.452;8.502;2023-08-06T00:00:20;15.60;99.90
12049;DHT22;6085;49.452;8.502;2023-08-06T00:04:21;15.70;99.90
12049;DHT22;6085;49.452;8.502;2023-08-06T00:08:25;15.80;99.90
12049;DHT22;6085;49.452;8.502;2023-08-06T00:12:27;15.90;99.90
12049;DHT22;6085;49.452;8.502;2023-08-06T00:16:29;15.90;99.90
12049;DHT22;6085;49.452;8.502;2023-08-06T00:20:31;15.90;99.90
12049;DHT22;6085;49.452;8.502;2023-08-06T00:24:34;15.90;99.90
12049;DHT22;6085;49.452;8.502;2023-08-06T00:28:36;15.90;99.90
12049;DHT22;6085;49.452;8.502;2023-08-06T00:32:38;15.90;99.90
12049;DHT22;6085;49.452;8.502;2023-08-06T00:36:40;15.90;99.90
12049;DHT22;6085;49.452;8.502;2023-08-06T00:40:43;16.00;99.90
12049;DHT22;6085;49.452;8.502;2023-08-06T00:44:45;16.10;99.90
12049;DHT22;6085;49.452;8.502;2023-08-06T00:48:47;16.20;99.90
12049;DHT22;6085;49.452;8.502;2023-08-06T00:52:49;16.30;99.90
12049;DHT22;6085;49.452;8.502;2023-08-06T00:56:53;16.40;99.90
12049;DHT22;6085;49.452;8.502;2023-08-06T01:00:55;16.50;99.90
12049;DHT22;6085;49.452;8.502;2023-08-06T01:04:57;16.50;99.90
12049;DHT22;6085;49.452;8.502;2023-08-06T01:09:04;16.50;99.90
12049;DHT22;6085;49.452;8.502;2023-08-06T01:13:18;16.50;99.90
12049;DHT22;6085;49.452;8.502;2023-08-06T01:17:24;16.60;99.90
12049;DHT22;6085;49.452;8.502;2023-08-06T01:21:28;16.50;99.90
12049;DHT22;6085;49.452;8.502;2023-08-06T01:25:34;16.40;99.90
12049;DHT22;6085;49.452;8.502;2023-08-06T01:29:41;16.30;99.90
12049;DHT22;6085;49.452;8.502;2023-08-06T01:33:47;16.10;99.90
12049;DHT22;6085;49.452;8.502;2023-08-06T01:37:51;16.00;99.90
12049;DHT22;6085;49.452;8.502;2023-08-06T01:41:53;15.90;99.90
12049;DHT22;6085;49.452;8.502;2023-08-06T01:45:55;15.80;99.90
12049;DHT22;6085;49.452;8.502;2023-08-06T01:49:57;15.70;99.90
12049;DHT22;6085;49.452;8.502;2023-08-06T01:54:00;15.60;99.90
12049;DHT22;6085;49.452;8.502;2023-08-06T01:58:03;15.60;99.90
12049;DHT22;6085;49.452;8.502;2023-08-06T02:02:05;15.70;99.90
12049;DHT22;6085;49.452;8.502;2023-08-06T02:06:07;15.80;99.90
12049;DHT22;6085;49.452;8.502;2023-08-06T02:10:10;15.90;99.90
12049;DHT22;6085;49.452;8.502;2023-08-06T02:14:12;16.00;99.90
12049;DHT22;6085;49.452;8.502;2023-08-06T02:18:14;16.10;99.90
12049;DHT22;6085;49.452;8.502;2023-08-06T02:22:16;16.20;99.90
12049;DHT22;6085;49.452;8.502;2023-08-06T02:26:19;16.20;99.90
12049;DHT22;6085;49.452;8.502;2023-08-06T02:30:21;16.20;99.90
12049;DHT22;6085;49.452;8.502;2023-08-06T02:34:23;16.10;99.90
12049;DHT22;6085;49.452;8.502;2023-08-06T02:38:25;16.00;99.90
12049;DHT22;6085;49.452;8.502;2023-08-06T02:42:28;15.90;99.90
12049;DHT22;6085;49.452;8.502;2023-08-06T02:46:30;15.80;99.90
12049;DHT22;6085;49.452;8.502;2023-08-06T02:50:37;15.70;99.90
12049;DHT22;6085;49.452;8.502;2023-08-06T02:54:39;15.70;99.90
12049;DHT22;6085;49.452;8.502;2023-08-06T02:58:43;15.70;99.90
12049;DHT22;6085;49.452;8.502;2023-08-06T03:02:45;15.60;99.90
12049;DHT22;6085;49.452;8.502;2023-08-06T03:06:48;15.40;99.90
12049;DHT22;6085;49.452;8.502;2023-08-06T03:10:50;15.30;99.90
12049;DHT22;6085;49.452;8.502;2023-08-06T03:14:54;15.30;99.90
12049;DHT22;6085;49.452;8.502;2023-08-06T03:18:56;15.40;99.90
12049;DHT22;6085;49.452;8.502;2023-08-06T03:22:57;15.30;99.90
12049;DHT22;6085;49.452;8.502;2023-08-06T03:27:00;15.10;99.90
12049;DHT22;6085;49.452;8.502;2023-08-06T03:31:04;15.10;99.90
12049;DHT22;6085;49.452;8.502;2023-08-06T03:35:07;15.10;99.90
12049;DHT22;6085;49.452;8.502;2023-08-06T03:39:09;15.20;99.90
12049;DHT22;6085;49.452;8.502;2023-08-06T03:43:10;15.20;99.90
12049;DHT22;6085;49.452;8.502;2023-08-06T03:47:14;15.30;99.90
12049;DHT22;6085;49.452;8.502;2023-08-06T03:51:16;15.30;99.90
12049;DHT22;6085;49.452;8.502;2023-08-06T03:55:18;15.40;99.90
12049;DHT22;6085;49.452;8.502;2023-08-06T03:59:20;15.50;99.90
12049;DHT22;6085;49.452;8.502;2023-08-06T04:03:23;15.50;99.90
12049;DHT22;6085;49.452;8.502;2023-08-06T04:07:25;15.60;99.90
12049;DHT22;6085;49.452;8.502;2023-08-06T04:11:27;15.60;99.90
12049;DHT22;6085;49.452;8.502;2023-08-06T04:15:29;15.60;99.90
12049;DHT22;6085;49.452;8.502;2023-08-06T04:19:32;15.60;99.90
12049;DHT22;6085;49.452;8.502;2023-08-06T04:23:34;15.60;99.90
12049;DHT22;6085;49.452;8.502;2023-08-06T04:27:36;15.50;99.90
12049;DHT22;6085;49.452;8.502;2023-08-06T04:31:41;15.40;99.90
12049;DHT22;6085;49.452;8.502;2023-08-06T04:35:45;15.30;99.90
12049;DHT22;6085;49.452;8.502;2023-08-06T04:39:47;15.30;99.90
12049;DHT22;6085;49.452;8.502;2023-08-06T04:43:49;15.30;99.90
12049;DHT22;6085;49.452;8.502;2023-08-06T04:47:51;15.30;99.90
12049;DHT22;6085;49.452;8.502;2023-08-06T04:51:54;15.30;99.90
12049;DHT22;6085;49.452;8.502;2023-08-06T04:55:56;15.30;99.90
12049;DHT22;6085;49.452;8.502;2023-08-06T04:59:58;15.40;99.90
12049;DHT22;6085;49.452;8.502;2023-08-06T05:04:00;15.30;99.90
12049;DHT22;6085;49.452;8.502;2023-08-06T05:08:03;15.30;99.90
12049;DHT22;6085;49.452;8.502;2023-08-06T05:12:06;15.30;99.90
12049;DHT22;6085;49.452;8.502;2023-08-06T05:16:08;15.30;99.90
12049;DHT22;6085;49.452;8.502;2023-08-06T05:20:11;15.30;99.90
12049;DHT22;6085;49.452;8.502;2023-08-06T05:24:14;15.30;99.90
12049;DHT22;6085;49.452;8.502;2023-08-06T05:28:16;15.20;99.90
12049;DHT22;6085;49.452;8.502;2023-08-06T05:32:18;15.10;99.90
12049;DHT22;6085;49.452;8.502;2023-08-06T05:36:20;15.00;99.90
12049;DHT22;6085;49.452;8.502;2023-08-06T05:40:24;15.00;99.90
12049;DHT22;6085;49.452;8.502;2023-08-06T05:44:26;15.00;99.90
12049;DHT22;6085;49.452;8.502;2023-08-06T05:48:28;15.00;99.90
12049;DHT22;6085;49.452;8.502;2023-08-06T05:52:30;14.90;99.90
12049;DHT22;6085;49.452;8.502;2023-08-06T05:56:33;14.90;99.90
12049;DHT22;6085;49.452;8.502;2023-08-06T06:00:35;14.90;99.90
12049;DHT22;6085;49.452;8.502;2023-08-06T06:04:37;14.80;99.90
12049;DHT22;6085;49.452;8.502;2023-08-06T06:08:39;14.70;99.90
12049;DHT22;6085;49.452;8.502;2023-08-06T06:12:42;14.60;99.90
12049;DHT22;6085;49.452;8.502;2023-08-06T06:16:44;14.60;99.90
12049;DHT22;6085;49.452;8.502;2023-08-06T06:20:46;14.50;99.90
12049;DHT22;6085;49.452;8.502;2023-08-06T06:24:48;14.60;99.90
12049;DHT22;6085;49.452;8.502;2023-08-06T06:28:51;14.60;99.90
12049;DHT22;6085;49.452;8.502;2023-08-06T06:32:53;14.80;99.90
12049;DHT22;6085;49.452;8.502;2023-08-06T06:36:58;14.90;99.90
12049;DHT22;6085;49.452;8.502;2023-08-06T06:41:00;15.00;99.90
12049;DHT22;6085;49.452;8.502;2023-08-06T06:45:06;15.10;99.90
12049;DHT22;6085;49.452;8.502;2023-08-06T06:49:08;15.20;99.90
12049;DHT22;6085;49.452;8.502;2023-08-06T06:53:12;15.20;99.90
12049;DHT22;6085;49.452;8.502;2023-08-06T06:57:14;15.30;99.90
12049;DHT22;6085;49.452;8.502;2023-08-06T07:01:17;15.50;99.90
12049;DHT22;6085;49.452;8.502;2023-08-06T07:05:19;15.80;99.90
12049;DHT22;6085;49.452;8.502;2023-08-06T07:09:21;16.00;99.90
12049;DHT22;6085;49.452;8.502;2023-08-06T07:13:23;16.30;99.90
12049;DHT22;6085;49.452;8.502;2023-08-06T07:17:26;16.40;99.90
12049;DHT22;6085;49.452;8.502;2023-08-06T07:21:28;16.60;99.90
12049;DHT22;6085;49.452;8.502;2023-08-06T07:25:30;16.60;99.90
12049;DHT22;6085;49.452;8.502;2023-08-06T07:29:32;16.40;99.90
12049;DHT22;6085;49.452;8.502;2023-08-06T07:33:35;16.30;99.90
12049;DHT22;6085;49.452;8.502;2023-08-06T07:37:37;16.50;99.90
12049;DHT22;6085;49.452;8.502;2023-08-06T07:41:39;16.80;99.90
12049;DHT22;6085;49.452;8.502;2023-08-06T07:45:41;17.20;99.90
12049;DHT22;6085;49.452;8.502;2023-08-06T07:49:45;17.00;99.90
12049;DHT22;6085;49.452;8.502;2023-08-06T07:53:47;16.60;99.90
12049;DHT22;6085;49.452;8.502;2023-08-06T07:57:49;16.30;99.90
12049;DHT22;6085;49.452;8.502;2023-08-06T08:01:51;16.20;99.90
12049;DHT22;6085;49.452;8.502;2023-08-06T08:05:55;16.60;99.90
12049;DHT22;6085;49.452;8.502;2023-08-06T08:10:00;17.00;99.90
12049;DHT22;6085;49.452;8.502;2023-08-06T08:14:02;17.30;99.90
12049;DHT22;6085;49.452;8.502;2023-08-06T08:18:04;18.80;99.90
12049;DHT22;6085;49.452;8.502;2023-08-06T08:22:07;20.50;99.90
12049;DHT22;6085;49.452;8.502;2023-08-06T08:26:09;19.90;99.90
12049;DHT22;6085;49.452;8.502;2023-08-06T08:30:11;18.50;99.90
12049;DHT22;6085;49.452;8.502;2023-08-06T08:34:13;17.10;99.90
12049;DHT22;6085;49.452;8.502;2023-08-06T08:38:16;16.50;99.90
12049;DHT22;6085;49.452;8.502;2023-08-06T08:42:18;16.30;99.90
12049;DHT22;6085;49.452;8.502;2023-08-06T08:46:21;17.60;99.90
12049;DHT22;6085;49.452;8.502;2023-08-06T08:50:23;19.00;99.90
12049;DHT22;6085;49.452;8.502;2023-08-06T08:54:26;19.80;99.90
12049;DHT22;6085;49.452;8.502;2023-08-06T08:58:29;19.50;99.90
12049;DHT22;6085;49.452;8.502;2023-08-06T09:02:33;19.30;99.90
12049;DHT22;6085;49.452;8.502;2023-08-06T09:06:37;19.30;99.90
12049;DHT22;6085;49.452;8.502;2023-08-06T09:10:41;19.60;99.90
12049;DHT22;6085;49.452;8.502;2023-08-06T09:14:44;18.50;99.90
12049;DHT22;6085;49.452;8.502;2023-08-06T09:18:46;17.50;99.90
12049;DHT22;6085;49.452;8.502;2023-08-06T09:22:48;17.00;99.90
12049;DHT22;6085;49.452;8.502;2023-08-06T09:26:52;17.50;99.90
12049;DHT22;6085;49.452;8.502;2023-08-06T09:30:54;20.90;99.90
12049;DHT22;6085;49.452;8.502;2023-08-06T09:34:57;21.60;99.90
12049;DHT22;6085;49.452;8.502;2023-08-06T09:38:58;21.30;99.90
12049;DHT22;6085;49.452;8.502;2023-08-06T09:43:02;19.60;99.90
12049;DHT22;6085;49.452;8.502;2023-08-06T09:47:04;18.20;99.90
12049;DHT22;6085;49.452;8.502;2023-08-06T09:51:08;17.70;99.90
12049;DHT22;6085;49.452;8.502;2023-08-06T09:55:11;17.40;99.90
12049;DHT22;6085;49.452;8.502;2023-08-06T09:59:14;17.00;99.90
12049;DHT22;6085;49.452;8.502;2023-08-06T10:03:17;17.30;99.90
12049;DHT22;6085;49.452;8.502;2023-08-06T10:07:19;17.60;99.90
12049;DHT22;6085;49.452;8.502;2023-08-06T10:11:24;17.80;99.90
12049;DHT22;6085;49.452;8.502;2023-08-06T10:15:31;17.50;99.90
12049;DHT22;6085;49.452;8.502;2023-08-06T10:19:33;17.00;99.90
12049;DHT22;6085;49.452;8.502;2023-08-06T10:23:36;16.60;99.90
12049;DHT22;6085;49.452;8.502;2023-08-06T10:27:41;16.40;99.90
12049;DHT22;6085;49.452;8.502;2023-08-06T10:31:59;16.20;99.90
12049;DHT22;6085;49.452;8.502;2023-08-06T10:36:02;16.00;99.90
12049;DHT22;6085;49.452;8.502;2023-08-06T10:40:08;15.90;99.90
12049;DHT22;6085;49.452;8.502;2023-08-06T10:44:11;16.00;99.90
12049;DHT22;6085;49.452;8.502;2023-08-06T10:48:28;16.00;99.90
12049;DHT22;6085;49.452;8.502;2023-08-06T10:52:30;16.00;99.90
12049;DHT22;6085;49.452;8.502;2023-08-06T10:56:40;16.10;99.90
12049;DHT22;6085;49.452;8.502;2023-08-06T11:00:42;16.10;99.90
12049;DHT22;6085;49.452;8.502;2023-08-06T11:04:46;16.20;99.90
12049;DHT22;6085;49.452;8.502;2023-08-06T11:08:49;16.40;99.90
12049;DHT22;6085;49.452;8.502;2023-08-06T11:12:51;16.50;99.90
12049;DHT22;6085;49.452;8.502;2023-08-06T11:16:53;16.70;99.90
12049;DHT22;6085;49.452;8.502;2023-08-06T11:20:58;16.70;99.90
12049;DHT22;6085;49.452;8.502;2023-08-06T11:25:00;16.90;99.90
12049;DHT22;6085;49.452;8.502;2023-08-06T11:29:03;17.20;99.90
12049;DHT22;6085;49.452;8.502;2023-08-06T11:33:07;17.40;99.90
12049;DHT22;6085;49.452;8.502;2023-08-06T11:37:11;17.40;99.90
12049;DHT22;6085;49.452;8.502;2023-08-06T11:41:13;17.50;99.90
12049;DHT22;6085;49.452;8.502;2023-08-06T11:45:15;17.90;99.90
12049;DHT22;6085;49.452;8.502;2023-08-06T11:49:17;18.00;99.90
12049;DHT22;6085;49.452;8.502;2023-08-06T11:53:27;17.90;99.90
12049;DHT22;6085;49.452;8.502;2023-08-06T11:57:30;17.90;99.90
12049;DHT22;6085;49.452;8.502;2023-08-06T12:01:35;17.80;99.90
12049;DHT22;6085;49.452;8.502;2023-08-06T12:05:37;17.70;99.90
12049;DHT22;6085;49.452;8.502;2023-08-06T12:09:41;17.60;99.90
12049;DHT22;6085;49.452;8.502;2023-08-06T12:13:43;17.60;99.90
12049;DHT22;6085;49.452;8.502;2023-08-06T12:17:45;17.60;99.90
12049;DHT22;6085;49.452;8.502;2023-08-06T12:21:47;17.60;99.90
12049;DHT22;6085;49.452;8.502;2023-08-06T12:25:50;17.60;99.90
12049;DHT22;6085;49.452;8.502;2023-08-06T12:29:53;17.50;99.90
12049;DHT22;6085;49.452;8.502;2023-08-06T12:33:55;17.50;99.90
12049;DHT22;6085;49.452;8.502;2023-08-06T12:37:57;17.40;99.90
12049;DHT22;6085;49.452;8.502;2023-08-06T12:42:01;17.40;99.90
12049;DHT22;6085;49.452;8.502;2023-08-06T12:46:03;17.50;99.90
12049;DHT22;6085;49.452;8.502;2023-08-06T12:50:06;17.40;99.90
12049;DHT22;6085;49.452;8.502;2023-08-06T12:54:08;17.40;99.90
12049;DHT22;6085;49.452;8.502;2023-08-06T12:58:11;17.30;99.90
12049;DHT22;6085;49.452;8.502;2023-08-06T13:02:13;17.40;99.90
12049;DHT22;6085;49.452;8.502;2023-08-06T13:06:15;17.30;99.90
12049;DHT22;6085;49.452;8.502;2023-08-06T13:10:17;17.20;99.90
12049;DHT22;6085;49.452;8.502;2023-08-06T13:14:22;17.30;99.90
12049;DHT22;6085;49.452;8.502;2023-08-06T13:18:24;17.40;99.90
12049;DHT22;6085;49.452;8.502;2023-08-06T13:22:26;17.40;99.90
12049;DHT22;6085;49.452;8.502;2023-08-06T13:26:29;17.50;99.90
12049;DHT22;6085;49.452;8.502;2023-08-06T13:30:33;17.50;99.90
12049;DHT22;6085;49.452;8.502;2023-08-06T13:34:35;17.50;99.90
12049;DHT22;6085;49.452;8.502;2023-08-06T13:38:37;17.50;99.90
12049;DHT22;6085;49.452;8.502;2023-08-06T13:42:39;17.50;99.90
12049;DHT22;6085;49.452;8.502;2023-08-06T13:46:43;17.50;99.90
12049;DHT22;6085;49.452;8.502;2023-08-06T13:50:45;17.40;99.90
12049;DHT22;6085;49.452;8.502;2023-08-06T13:54:47;17.40;99.90
12049;DHT22;6085;49.452;8.502;2023-08-06T13:58:48;17.30;99.90
12049;DHT22;6085;49.452;8.502;2023-08-06T14:02:52;17.30;99.90
12049;DHT22;6085;49.452;8.502;2023-08-06T14:06:54;17.40;99.90
12049;DHT22;6085;49.452;8.502;2023-08-06T14:10:56;17.40;99.90
12049;DHT22;6085;49.452;8.502;2023-08-06T14:14:58;17.30;99.90
12049;DHT22;6085;49.452;8.502;2023-08-06T14:19:02;17.20;99.90
12049;DHT22;6085;49.452;8.502;2023-08-06T14:23:04;17.00;99.90
12049;DHT22;6085;49.452;8.502;2023-08-06T14:27:06;17.10;99.90
12049;DHT22;6085;49.452;8.502;2023-08-06T14:31:08;17.10;99.90
12049;DHT22;6085;49.452;8.502;2023-08-06T14:35:12;17.10;99.90
12049;DHT22;6085;49.452;8.502;2023-08-06T14:39:14;17.20;99.90
12049;DHT22;6085;49.452;8.502;2023-08-06T14:43:16;17.20;99.90
12049;DHT22;6085;49.452;8.502;2023-08-06T14:47:18;17.20;99.90
12049;DHT22;6085;49.452;8.502;2023-08-06T14:51:21;17.40;99.90
12049;DHT22;6085;49.452;8.502;2023-08-06T14:55:24;17.50;99.90
12049;DHT22;6085;49.452;8.502;2023-08-06T14:59:26;17.70;99.90
12049;DHT22;6085;49.452;8.502;2023-08-06T15:03:28;17.70;99.90
12049;DHT22;6085;49.452;8.502;2023-08-06T15:07:33;17.80;99.90
12049;DHT22;6085;49.452;8.502;2023-08-06T15:11:36;17.60;99.90
12049;DHT22;6085;49.452;8.502;2023-08-06T15:15:37;17.20;99.90
12049;DHT22;6085;49.452;8.502;2023-08-06T15:19:42;16.60;99.90
12049;DHT22;6085;49.452;8.502;2023-08-06T15:23:46;16.20;99.90
12049;DHT22;6085;49.452;8.502;2023-08-06T15:27:48;16.20;99.90
12049;DHT22;6085;49.452;8.502;2023-08-06T15:31:50;16.20;99.90
12049;DHT22;6085;49.452;8.502;2023-08-06T15:35:52;16.20;99.90
12049;DHT22;6085;49.452;8.502;2023-08-06T15:39:55;16.20;99.90
12049;DHT22;6085;49.452;8.502;2023-08-06T15:43:57;16.20;99.90
12049;DHT22;6085;49.452;8.502;2023-08-06T15:47:59;16.30;99.90
12049;DHT22;6085;49.452;8.502;2023-08-06T15:52:01;16.70;99.90
12049;DHT22;6085;49.452;8.502;2023-08-06T15:56:04;16.90;99.90
12049;DHT22;6085;49.452;8.502;2023-08-06T16:00:08;16.90;99.90
12049;DHT22;6085;49.452;8.502;2023-08-06T16:04:10;16.90;99.90
12049;DHT22;6085;49.452;8.502;2023-08-06T16:08:12;16.80;99.90
12049;DHT22;6085;49.452;8.502;2023-08-06T16:12:15;16.80;99.90
12049;DHT22;6085;49.452;8.502;2023-08-06T16:16:19;16.70;99.90
12049;DHT22;6085;49.452;8.502;2023-08-06T16:20:21;16.70;99.90
12049;DHT22;6085;49.452;8.502;2023-08-06T16:24:23;16.80;99.90
12049;DHT22;6085;49.452;8.502;2023-08-06T16:28:26;16.80;99.90
12049;DHT22;6085;49.452;8.502;2023-08-06T16:32:29;16.70;99.90
12049;DHT22;6085;49.452;8.502;2023-08-06T16:36:31;16.60;99.90
12049;DHT22;6085;49.452;8.502;2023-08-06T16:40:33;16.60;99.90
12049;DHT22;6085;49.452;8.502;2023-08-06T16:44:36;16.70;99.90
12049;DHT22;6085;49.452;8.502;2023-08-06T16:48:38;16.80;99.90
12049;DHT22;6085;49.452;8.502;2023-08-06T16:52:40;16.80;99.90
12049;DHT22;6085;49.452;8.502;2023-08-06T16:56:42;16.60;99.90
12049;DHT22;6085;49.452;8.502;2023-08-06T17:00:46;16.50;99.90
12049;DHT22;6085;49.452;8.502;2023-08-06T17:04:47;16.30;99.90
12049;DHT22;6085;49.452;8.502;2023-08-06T17:08:50;16.20;99.90
12049;DHT22;6085;49.452;8.502;2023-08-06T17:12:52;16.20;99.90
12049;DHT22;6085;49.452;8.502;2023-08-06T17:16:56;16.20;99.90
12049;DHT22;6085;49.452;8.502;2023-08-06T17:20:59;16.30;99.90
12049;DHT22;6085;49.452;8.502;2023-08-06T17:25:02;16.30;99.90
12049;DHT22;6085;49.452;8.502;2023-08-06T17:29:04;16.20;99.90
12049;DHT22;6085;49.452;8.502;2023-08-06T17:33:07;16.20;99.90
12049;DHT22;6085;49.452;8.502;2023-08-06T17:37:09;16.10;99.90
12049;DHT22;6085;49.452;8.502;2023-08-06T17:41:11;16.10;99.90
12049;DHT22;6085;49.452;8.502;2023-08-06T17:45:13;16.10;99.90
12049;DHT22;6085;49.452;8.502;2023-08-06T17:49:17;16.00;99.90
12049;DHT22;6085;49.452;8.502;2023-08-06T17:53:18;16.00;99.90
12049;DHT22;6085;49.452;8.502;2023-08-06T17:57:20;16.00;99.90
12049;DHT22;6085;49.452;8.502;2023-08-06T18:01:22;15.90;99.90
12049;DHT22;6085;49.452;8.502;2023-08-06T18:05:26;15.90;99.90
12049;DHT22;6085;49.452;8.502;2023-08-06T18:09:31;15.90;99.90
12049;DHT22;6085;49.452;8.502;2023-08-06T18:13:33;15.90;99.90
12049;DHT22;6085;49.452;8.502;2023-08-06T18:17:35;15.80;99.90
12049;DHT22;6085;49.452;8.502;2023-08-06T18:21:38;15.80;99.90
12049;DHT22;6085;49.452;8.502;2023-08-06T18:25:40;15.70;99.90
12049;DHT22;6085;49.452;8.502;2023-08-06T18:29:43;15.70;99.90
12049;DHT22;6085;49.452;8.502;2023-08-06T18:33:44;15.60;99.90
12049;DHT22;6085;49.452;8.502;2023-08-06T18:37:48;15.70;99.90
12049;DHT22;6085;49.452;8.502;2023-08-06T18:41:50;15.60;99.90
12049;DHT22;6085;49.452;8.502;2023-08-06T18:45:52;15.60;99.90
12049;DHT22;6085;49.452;8.502;2023-08-06T18:49:54;15.60;99.90
12049;DHT22;6085;49.452;8.502;2023-08-06T18:53:57;15.60;99.90
12049;DHT22;6085;49.452;8.502;2023-08-06T18:58:00;15.50;99.90
12049;DHT22;6085;49.452;8.502;2023-08-06T19:02:04;15.50;99.90
12049;DHT22;6085;49.452;8.502;2023-08-06T19:06:08;15.50;99.90
12049;DHT22;6085;49.452;8.502;2023-08-06T19:10:11;15.50;99.90
12049;DHT22;6085;49.452;8.502;2023-08-06T19:14:13;15.40;99.90
12049;DHT22;6085;49.452;8.502;2023-08-06T19:18:15;15.40;99.90
12049;DHT22;6085;49.452;8.502;2023-08-06T19:22:17;15.30;99.90
12049;DHT22;6085;49.452;8.502;2023-08-06T19:26:21;15.30;99.90
12049;DHT22;6085;49.452;8.502;2023-08-06T19:30:22;15.30;99.90
12049;DHT22;6085;49.452;8.502;2023-08-06T19:34:24;15.30;99.90
12049;DHT22;6085;49.452;8.502;2023-08-06T19:38:26;15.30;99.90
12049;DHT22;6085;49.452;8.502;2023-08-06T19:42:30;15.20;99.90
12049;DHT22;6085;49.452;8.502;2023-08-06T19:46:32;15.20;99.90
12049;DHT22;6085;49.452;8.502;2023-08-06T19:50:34;15.20;99.90
12049;DHT22;6085;49.452;8.502;2023-08-06T19:54:35;15.20;99.90
12049;DHT22;6085;49.452;8.502;2023-08-06T19:58:39;15.20;99.90
12049;DHT22;6085;49.452;8.502;2023-08-06T20:02:41;15.10;99.90
12049;DHT22;6085;49.452;8.502;2023-08-06T20:06:43;15.00;99.90
12049;DHT22;6085;49.452;8.502;2023-08-06T20:10:46;15.00;99.90
12049;DHT22;6085;49.452;8.502;2023-08-06T20:14:52;14.90;99.90
12049;DHT22;6085;49.452;8.502;2023-08-06T20:18:53;14.80;99.90
12049;DHT22;6085;49.452;8.502;2023-08-06T20:22:55;14.70;99.90
12049;DHT22;6085;49.452;8.502;2023-08-06T20:26:57;14.60;99.90
12049;DHT22;6085;49.452;8.502;2023-08-06T20:31:02;14.40;99.90
12049;DHT22;6085;49.452;8.502;2023-08-06T20:35:05;14.30;99.90
12049;DHT22;6085;49.452;8.502;2023-08-06T20:39:07;14.20;99.90
12049;DHT22;6085;49.452;8.502;2023-08-06T20:43:09;14.10;99.90
12049;DHT22;6085;49.452;8.502;2023-08-06T20:47:13;14.00;99.90
12049;DHT22;6085;49.452;8.502;2023-08-06T20:51:15;13.90;99.90
12049;DHT22;6085;49.452;8.502;2023-08-06T20:55:17;13.90;99.90
12049;DHT22;6085;49.452;8.502;2023-08-06T20:59:19;13.80;99.90
12049;DHT22;6085;49.452;8.502;2023-08-06T21:03:22;13.90;99.90
12049;DHT22;6085;49.452;8.502;2023-08-06T21:07:24;13.80;99.90
12049;DHT22;6085;49.452;8.502;2023-08-06T21:11:27;13.90;99.90
12049;DHT22;6085;49.452;8.502;2023-08-06T21:15:29;13.90;99.90
12049;DHT22;6085;49.452;8.502;2023-08-06T21:19:33;13.80;99.90
12049;DHT22;6085;49.452;8.502;2023-08-06T21:23:35;13.80;99.90
12049;DHT22;6085;49.452;8.502;2023-08-06T21:27:37;13.80;99.90
12049;DHT22;6085;49.452;8.502;2023-08-06T21:31:39;13.80;99.90
12049;DHT22;6085;49.452;8.502;2023-08-06T21:35:42;13.70;99.90
12049;DHT22;6085;49.452;8.502;2023-08-06T21:39:45;13.70;99.90
12049;DHT22;6085;49.452;8.502;2023-08-06T21:43:48;13.70;99.90
12049;DHT22;6085;49.452;8.502;2023-08-06T21:47:53;13.70;99.90
12049;DHT22;6085;49.452;8.502;2023-08-06T21:51:56;13.70;99.90
12049;DHT22;6085;49.452;8.502;2023-08-06T21:55:59;13.70;99.90
12049;DHT22;6085;49.452;8.502;2023-08-06T22:00:06;13.70;99.90
12049;DHT22;6085;49.452;8.502;2023-08-06T22:04:09;13.70;99.90
12049;DHT22;6085;49.452;8.502;2023-08-06T22:08:12;13.70;99.90
12049;DHT22;6085;49.452;8.502;2023-08-06T22:12:14;13.70;99.90
12049;DHT22;6085;49.452;8.502;2023-08-06T22:16:15;13.70;99.90
12049;DHT22;6085;49.452;8.502;2023-08-06T22:20:17;13.70;99.90
12049;DHT22;6085;49.452;8.502;2023-08-06T22:24:21;13.60;99.90
12049;DHT22;6085;49.452;8.502;2023-08-06T22:28:23;13.50;99.90
12049;DHT22;6085;49.452;8.502;2023-08-06T22:32:25;13.40;99.90
12049;DHT22;6085;49.452;8.502;2023-08-06T22:36:29;13.40;99.90
12049;DHT22;6085;49.452;8.502;2023-08-06T22:40:33;13.30;99.90
12049;DHT22;6085;49.452;8.502;2023-08-06T22:44:35;13.20;99.90
12049;DHT22;6085;49.452;8.502;2023-08-06T22:48:36;13.10;99.90
12049;DHT22;6085;49.452;8.502;2023-08-06T22:52:38;13.10;99.90
12049;DHT22;6085;49.452;8.502;2023-08-06T22:56:42;13.10;99.90
12049;DHT22;6085;49.452;8.502;2023-08-06T23:00:43;13.10;99.90
12049;DHT22;6085;49.452;8.502;2023-08-06T23:04:45;13.00;99.90
12049;DHT22;6085;49.452;8.502;2023-08-06T23:08:47;13.00;99.90
12049;DHT22;6085;49.452;8.502;2023-08-06T23:12:51;13.10;99.90
12049;DHT22;6085;49.452;8.502;2023-08-06T23:16:53;13.10;99.90
12049;DHT22;6085;49.452;8.502;2023-08-06T23:20:55;13.10;99.90
12049;DHT22;6085;49.452;8.502;2023-08-06T23:24:57;13.10;99.90
12049;DHT22;6085;49.452;8.502;2023-08-06T23:29:00;13.10;99.90
12049;DHT22;6085;49.452;8.502;2023-08-06T23:33:02;13.20;99.90
12049;DHT22;6085;49.452;8.502;2023-08-06T23:37:05;13.20;99.90
12049;DHT22;6085;49.452;8.502;2023-08-06T23:41:06;13.30;99.90
12049;DHT22;6085;49.452;8.502;2023-08-06T23:45:10;13.30;99.90
12049;DHT22;6085;49.452;8.502;2023-08-06T23:49:12;13.30;99.90
12049;DHT22;6085;49.452;8.502;2023-08-06T23:53:14;13.40;99.90
12049;DHT22;6085;49.452;8.502;2023-08-06T23:57:16;13.40;99.90
